METAR AND TAF INFORMATION
METAR FOR SCRM
ADDS - METARS form results

(0858 UTC 25 November 2020)
Data provider http://aviationweather.gov/metar/data/
 
METAR text: SCRM 250800Z 27006KT 0200 FG VV001 M01/M01 Q0982 NOSIG
Conditions at: SCRM (TENIENTE R MARSH, CL) observed 0800 UTC 25 November 2020
Temperature: -1.0°C (30°F)
Dewpoint: -1.0°C (30°F) [RH = 100%]
Pressure (altimeter): 29.00 inches Hg (982.0 mb)
Winds: from the W (270 degrees) at 7 MPH (6 knots; 3.1 m/s)
Visibility: 0.12 miles (0.19 km)
Ceiling: indefinite ceiling with vertical visibility of 100 feet AGL
Clouds: obscured sky
Weather: FG  (fog)

 AIRPORT MAP

 RUNWAY INFORMATION
Runway 11 Runway length 4238 ft Runway width 125 ft
Runway elevation 142 ft Runway displaced threshold 0 ft Runway heading 122
Runway 29 Runway length 4238 ft Runway width 125 ft
Runway elevation 127 ft Runway displaced threshold 0 ft Runway heading 302

 AIRPORT FREQUENCIES
Type APP Name MARSH APP Frequency 118.1 MHZ
Type TWR Name TWR Frequency 118.1 MHZ

 AIRPORT NEAR NAVIGATION AIDS
Type VOR-DME Name Isla Rey Jorge Frequency 113300 KHZ
Type NDB Name Isla Rey Jorge Frequency 360 KHZ



Powered by Virtual Airlines Manager [v2.6.2]